Terminal Aerodrome Forecast
Issued by NWS

Home | Current Version | Previous Version | Text Only | Print | Product List | Glossary On
Versions: 1 2 3 4 5 6 7 8 9 10 11 12 13 14 15 16 17 18 19 20 21 22 23 24 25 26 27 28 29 30 31
000
FTUS41 KCTP 022035 AAA
TAFJST
TAF AMD
KJST 022035Z 0221/0318 32010KT P6SM BKN040
     FM030000 36005KT P6SM VCSH OVC040
     FM030300 01005KT 5SM -SHRA OVC025
     FM030500 02005KT 4SM -RA BR BKN007 OVC015
     FM030700 VRB03KT 2SM -RA BR OVC004
     FM031100 34003KT 4SM -RA BR OVC005
     FM031400 03005KT P6SM VCSH BKN030=

USA.gov is the U.S. government's official web portal to all federal, state and local government web resources and services.